createdAt,value
2023-01-11T00:01:56.978Z,4.85
2023-01-11T00:04:30.251Z,4.88
2023-01-11T00:06:57.854Z,4.89
2023-01-11T00:09:24.616Z,4.91
2023-01-11T00:11:51.257Z,4.90
2023-01-11T00:14:17.830Z,4.91
2023-01-11T00:16:44.470Z,4.94
2023-01-11T00:19:11.140Z,4.97
2023-01-11T00:21:37.768Z,5.00
2023-01-11T00:24:04.550Z,5.00
2023-01-11T00:26:31.145Z,5.08
2023-01-11T00:28:57.770Z,5.11
2023-01-11T00:31:24.476Z,5.10
2023-01-11T00:33:51.162Z,5.13
2023-01-11T00:36:17.713Z,5.14
2023-01-11T00:38:44.298Z,5.18
2023-01-11T00:41:31.011Z,5.20
2023-01-11T00:44:16.311Z,5.19
2023-01-11T00:47:02.261Z,5.22
2023-01-11T00:49:29.096Z,5.25
2023-01-11T00:51:55.888Z,5.29
2023-01-11T00:54:22.458Z,5.33
2023-01-11T00:56:49.147Z,5.35
2023-01-11T00:59:15.726Z,5.43
2023-01-11T01:01:42.381Z,5.45
2023-01-11T01:04:08.974Z,5.46
2023-01-11T01:06:35.597Z,5.47
2023-01-11T01:09:02.229Z,5.48
2023-01-11T01:11:28.821Z,5.52
2023-01-11T01:14:13.837Z,5.53
2023-01-11T01:16:42.424Z,5.55
2023-01-11T01:19:09.459Z,5.56
2023-01-11T01:21:37.418Z,5.59
2023-01-11T01:24:04.397Z,5.61
2023-01-11T01:26:31.045Z,5.61
2023-01-11T01:28:57.631Z,5.62
2023-01-11T01:31:24.257Z,5.65
2023-01-11T01:33:50.850Z,5.63
2023-01-11T01:36:17.441Z,5.69
2023-01-11T01:38:43.997Z,5.71
2023-01-11T01:41:12.445Z,5.73
2023-01-11T01:43:52.589Z,5.74
2023-01-11T01:46:21.395Z,5.77
2023-01-11T01:48:55.415Z,5.79
2023-01-11T01:51:28.470Z,5.81
2023-01-11T01:53:58.443Z,5.82
2023-01-11T01:56:40.465Z,5.83
2023-01-11T01:59:12.937Z,5.83
2023-01-11T02:01:49.959Z,5.84
2023-01-11T02:04:28.580Z,5.87
2023-01-11T02:06:59.599Z,5.89
2023-01-11T02:09:38.920Z,5.91
2023-01-11T02:12:07.867Z,5.94
2023-01-11T02:14:37.248Z,5.92
2023-01-11T02:17:04.113Z,5.95
2023-01-11T02:19:55.206Z,5.98
2023-01-11T02:22:33.515Z,5.98
2023-01-11T02:25:12.779Z,6.03
2023-01-11T02:28:01.312Z,6.02
2023-01-11T02:30:46.870Z,6.05
2023-01-11T02:33:25.385Z,6.08
2023-01-11T02:36:01.078Z,6.08
2023-01-11T02:38:35.379Z,6.13
2023-01-11T02:41:17.602Z,6.13
2023-01-11T02:44:07.676Z,6.15
2023-01-11T02:46:45.858Z,6.23
2023-01-11T02:49:32.033Z,6.28
2023-01-11T02:52:13.881Z,6.29
2023-01-11T02:54:45.403Z,6.33
2023-01-11T02:57:13.741Z,6.33
2023-01-11T02:59:41.961Z,6.36
2023-01-11T03:02:08.639Z,6.36
2023-01-11T03:04:37.255Z,6.40
2023-01-11T03:07:39.398Z,6.46
2023-01-11T03:10:11.609Z,6.45
2023-01-11T03:12:54.899Z,6.47
2023-01-11T03:15:42.355Z,6.54
2023-01-11T03:18:08.864Z,6.54
2023-01-11T03:20:40.943Z,6.59
2023-01-11T03:23:57.393Z,6.63
2023-01-11T03:26:44.138Z,6.63
2023-01-11T03:29:19.531Z,6.62
2023-01-11T03:31:52.263Z,6.62
2023-01-11T03:34:38.155Z,6.60
2023-01-11T03:37:12.449Z,6.64
2023-01-11T03:39:52.245Z,6.63
2023-01-11T03:42:22.423Z,6.64
2023-01-11T03:44:55.402Z,6.66
2023-01-11T03:47:25.093Z,6.66
2023-01-11T03:50:12.378Z,6.69
2023-01-11T03:52:42.584Z,6.71
2023-01-11T03:55:12.192Z,6.73
2023-01-11T03:57:51.403Z,6.74
2023-01-11T04:00:20.577Z,6.76
2023-01-11T04:02:47.489Z,6.78
2023-01-11T04:05:14.144Z,6.83
2023-01-11T04:07:40.763Z,6.79
2023-01-11T04:10:08.515Z,6.81
2023-01-11T04:12:35.098Z,6.83
2023-01-11T04:15:03.245Z,6.91
2023-01-11T04:17:29.845Z,6.92
2023-01-11T04:19:56.439Z,6.90
2023-01-11T04:22:23.088Z,6.92
2023-01-11T04:24:49.694Z,6.93
2023-01-11T04:27:16.295Z,6.97
2023-01-11T04:29:42.834Z,7.03
2023-01-11T04:32:09.410Z,7.07
2023-01-11T04:34:37.161Z,7.13
2023-01-11T04:37:03.750Z,7.18
2023-01-11T04:39:30.311Z,7.19
2023-01-11T04:42:15.372Z,7.29
2023-01-11T04:44:41.962Z,7.36
2023-01-11T04:47:08.567Z,7.34
2023-01-11T04:49:35.158Z,7.35
2023-01-11T04:52:01.762Z,7.37
2023-01-11T04:54:28.331Z,7.45
2023-01-11T04:56:54.897Z,7.41
2023-01-11T04:59:21.446Z,7.42
2023-01-11T05:01:48.259Z,7.45
2023-01-11T05:04:14.891Z,7.42
2023-01-11T05:06:41.593Z,7.41
2023-01-11T05:09:13.554Z,7.48
2023-01-11T05:11:40.260Z,7.49
2023-01-11T05:14:06.974Z,7.47
2023-01-11T05:16:33.758Z,7.46
2023-01-11T05:19:01.790Z,7.50
2023-01-11T05:21:31.679Z,7.51
2023-01-11T05:23:59.595Z,7.54
2023-01-11T05:26:29.302Z,7.57
2023-01-11T05:28:58.687Z,7.52
2023-01-11T05:31:25.662Z,7.51
2023-01-11T05:33:52.988Z,7.51
2023-01-11T05:36:21.477Z,7.56
2023-01-11T05:38:50.032Z,7.54
2023-01-11T05:41:18.240Z,7.57
2023-01-11T05:44:05.065Z,7.59
2023-01-11T05:46:33.142Z,7.60
2023-01-11T05:49:00.309Z,7.60
2023-01-11T05:51:30.704Z,7.65
2023-01-11T05:53:57.670Z,7.71
2023-01-11T05:56:24.710Z,7.67
2023-01-11T05:58:51.914Z,7.74
2023-01-11T06:01:19.967Z,7.71
2023-01-11T06:03:46.857Z,7.76
2023-01-11T06:06:14.674Z,7.83
2023-01-11T06:08:41.325Z,7.80
2023-01-11T06:11:07.948Z,7.86
2023-01-11T06:13:34.631Z,7.83
2023-01-11T06:16:06.324Z,7.80
2023-01-11T06:18:44.015Z,7.85
2023-01-11T06:21:11.516Z,7.93
2023-01-11T06:23:40.728Z,7.96
2023-01-11T06:26:10.051Z,7.93
2023-01-11T06:28:37.045Z,7.94
2023-01-11T06:31:04.726Z,7.97
2023-01-11T06:33:31.730Z,7.91
2023-01-11T06:35:59.090Z,7.94
2023-01-11T06:38:26.532Z,7.96
2023-01-11T06:40:58.727Z,7.99
2023-01-11T06:43:26.526Z,8.03
2023-01-11T06:45:53.507Z,8.06
2023-01-11T06:48:21.661Z,8.08
2023-01-11T06:50:49.904Z,8.11
2023-01-11T06:53:16.851Z,8.15
2023-01-11T06:55:44.073Z,8.14
2023-01-11T06:58:11.151Z,8.18
2023-01-11T07:00:38.215Z,8.21
2023-01-11T07:03:06.457Z,8.15
2023-01-11T07:05:34.759Z,8.15
2023-01-11T07:08:01.807Z,8.14
2023-01-11T07:10:28.751Z,8.15
2023-01-11T07:12:55.437Z,8.14
2023-01-11T07:15:22.517Z,8.13
2023-01-11T07:17:54.993Z,8.11
2023-01-11T07:20:23.167Z,8.10
2023-01-11T07:22:50.179Z,8.04
2023-01-11T07:25:17.837Z,8.03
2023-01-11T07:27:44.660Z,8.02
2023-01-11T07:30:11.743Z,8.03
2023-01-11T07:32:38.531Z,8.07
2023-01-11T07:35:05.599Z,8.05
2023-01-11T07:37:32.772Z,8.05
2023-01-11T07:39:59.438Z,8.00
2023-01-11T07:42:44.853Z,8.01
2023-01-11T07:45:11.626Z,8.00
2023-01-11T07:47:38.193Z,7.97
2023-01-11T07:50:05.342Z,8.05
2023-01-11T07:52:31.946Z,8.06
2023-01-11T07:55:02.501Z,8.03
2023-01-11T07:57:30.341Z,8.04
2023-01-11T07:59:57.057Z,8.02
2023-01-11T08:02:24.026Z,7.99
2023-01-11T08:04:50.761Z,7.94
2023-01-11T08:07:17.343Z,7.95
2023-01-11T08:09:44.015Z,8.03
2023-01-11T08:12:29.202Z,8.03
2023-01-11T08:14:55.793Z,7.99
2023-01-11T08:17:22.392Z,7.98
2023-01-11T08:19:48.977Z,7.99
2023-01-11T08:22:17.429Z,8.00
2023-01-11T08:24:44.324Z,8.00
2023-01-11T08:27:11.023Z,7.98
2023-01-11T08:29:38.083Z,8.05
2023-01-11T08:32:04.917Z,8.06
2023-01-11T08:34:33.616Z,8.07
2023-01-11T08:37:02.061Z,8.06
2023-01-11T08:39:31.803Z,8.02
2023-01-11T08:41:59.384Z,8.09
2023-01-11T08:44:33.837Z,8.12
2023-01-11T08:47:01.011Z,8.11
2023-01-11T08:49:27.558Z,8.15
2023-01-11T08:51:54.132Z,8.17
2023-01-11T08:54:20.692Z,8.19
2023-01-11T08:56:47.276Z,8.21
2023-01-11T08:59:13.917Z,8.26
2023-01-11T09:01:40.543Z,8.22
2023-01-11T09:04:23.095Z,8.22
2023-01-11T09:06:51.448Z,8.28
2023-01-11T09:09:18.089Z,8.25
2023-01-11T09:11:57.369Z,8.23
2023-01-11T09:14:26.113Z,8.34
2023-01-11T09:16:54.153Z,8.34
2023-01-11T09:19:21.325Z,8.37
2023-01-11T09:21:48.150Z,8.41
2023-01-11T09:24:14.982Z,8.45
2023-01-11T09:26:43.540Z,8.43
2023-01-11T09:29:11.768Z,8.47
2023-01-11T09:31:38.782Z,8.50
2023-01-11T09:34:06.985Z,8.40
2023-01-11T09:36:36.186Z,8.40
2023-01-11T09:39:07.584Z,8.49
2023-01-11T09:42:16.579Z,8.46
2023-01-11T09:44:51.616Z,8.53
2023-01-11T09:47:27.252Z,8.58
2023-01-11T09:49:58.283Z,8.52
2023-01-11T09:52:41.011Z,8.57
2023-01-11T09:55:25.095Z,8.65
2023-01-11T09:58:03.105Z,8.68
2023-01-11T10:00:44.403Z,8.75
2023-01-11T10:03:35.938Z,8.88
2023-01-11T10:06:15.050Z,8.91
2023-01-11T10:18:23.666Z,9.66
2023-01-11T10:18:53.802Z,9.59
2023-01-11T10:21:31.737Z,9.64
2023-01-11T10:24:18.881Z,9.59
2023-01-11T10:26:46.250Z,9.46
2023-01-11T10:29:21.549Z,9.48
2023-01-11T10:32:13.730Z,9.45
2023-01-11T10:35:08.003Z,9.47
2023-01-11T10:37:54.559Z,9.52
2023-01-11T10:40:30.446Z,9.58
2023-01-11T10:43:03.800Z,9.71
2023-01-11T10:45:39.833Z,9.76
2023-01-11T10:48:15.758Z,9.86
2023-01-11T10:51:05.167Z,9.95
2023-01-11T10:53:41.040Z,9.97
2023-01-11T10:56:30.329Z,10.02
2023-01-11T10:59:07.408Z,9.86
2023-01-11T11:01:38.818Z,9.86
2023-01-11T11:04:28.673Z,9.71
2023-01-11T11:07:17.891Z,9.56
2023-01-11T11:10:03.343Z,9.43
2023-01-11T11:12:38.791Z,9.44
2023-01-11T11:15:17.235Z,9.46
2023-01-11T11:17:50.193Z,9.34
2023-01-11T11:20:20.604Z,9.37
2023-01-11T11:22:52.045Z,9.37
2023-01-11T11:25:27.469Z,9.37
2023-01-11T11:28:02.896Z,9.42
2023-01-11T11:30:34.940Z,9.52
2023-01-11T11:33:03.763Z,9.57
2023-01-11T11:35:31.150Z,9.68
2023-01-11T11:37:57.914Z,9.77
2023-01-11T11:40:32.226Z,9.83
2023-01-11T11:43:19.055Z,9.86
2023-01-11T11:46:04.592Z,9.80
2023-01-11T11:48:34.113Z,9.75
2023-01-11T11:51:06.564Z,9.66
2023-01-11T11:53:43.559Z,9.73
2023-01-11T11:56:28.821Z,9.84
2023-01-11T11:58:57.881Z,9.96
2023-01-11T12:01:31.529Z,10.02
2023-01-11T12:04:05.118Z,10.06
2023-01-11T12:06:31.754Z,9.95
2023-01-11T12:09:02.521Z,9.89
2023-01-11T12:11:35.492Z,9.85
2023-01-11T12:14:10.961Z,9.81
2023-01-11T12:16:42.848Z,9.89
2023-01-11T12:19:29.982Z,9.93
2023-01-11T12:22:22.959Z,9.88
2023-01-11T12:25:21.633Z,9.83
2023-01-11T12:28:07.426Z,9.84
2023-01-11T12:30:49.967Z,9.84
2023-01-11T12:33:22.340Z,9.68
2023-01-11T12:36:01.291Z,9.70
2023-01-11T12:39:02.770Z,9.62
2023-01-11T12:41:56.151Z,9.57
2023-01-11T12:44:37.694Z,9.53
2023-01-11T12:47:23.469Z,9.43
2023-01-11T12:50:25.032Z,9.39
2023-01-11T12:52:55.653Z,9.39
2023-01-11T12:55:44.831Z,9.46
2023-01-11T12:58:40.147Z,9.40
2023-01-11T13:01:24.214Z,9.35
2023-01-11T13:04:20.279Z,9.27
2023-01-11T13:07:08.887Z,9.21
2023-01-11T13:10:06.202Z,9.24
2023-01-11T13:12:46.008Z,9.11
2023-01-11T13:15:12.561Z,9.07
2023-01-11T13:17:51.444Z,8.95
2023-01-11T13:20:30.898Z,8.89
2023-01-11T13:23:09.373Z,8.94
2023-01-11T13:25:41.175Z,8.84
2023-01-11T13:28:37.761Z,8.74
2023-01-11T13:31:07.707Z,8.67
2023-01-11T13:33:40.337Z,8.66
2023-01-11T13:36:22.570Z,8.62
2023-01-11T13:39:07.173Z,8.61
2023-01-11T13:41:43.193Z,8.56
2023-01-11T13:44:09.755Z,8.47
2023-01-11T13:47:00.086Z,8.48
2023-01-11T13:49:38.589Z,8.36
2023-01-11T13:52:13.455Z,8.46
2023-01-11T13:54:50.761Z,8.39
2023-01-11T13:57:26.055Z,8.35
2023-01-11T13:59:57.742Z,8.31
2023-01-11T14:02:39.215Z,8.24
2023-01-11T14:05:14.348Z,8.25
2023-01-11T14:08:01.065Z,8.29
2023-01-11T14:11:13.599Z,8.20
2023-01-11T14:14:06.859Z,8.13
2023-01-11T14:16:56.008Z,8.10
2023-01-11T14:19:26.377Z,8.14
2023-01-11T14:21:59.933Z,8.08
2023-01-11T14:24:29.514Z,8.00
2023-01-11T14:27:05.235Z,8.11
2023-01-11T14:29:55.387Z,8.07
2023-01-11T14:32:39.723Z,8.10
2023-01-11T14:35:45.005Z,7.99
2023-01-11T14:38:36.011Z,7.95
2023-01-11T14:41:07.433Z,7.97
2023-01-11T14:44:11.308Z,8.10
2023-01-11T14:46:55.910Z,8.15
2023-01-11T14:49:41.978Z,8.20
2023-01-11T14:52:17.532Z,8.14
2023-01-11T14:54:48.014Z,7.97
2023-01-11T14:57:52.315Z,7.97
2023-01-11T15:00:18.875Z,7.90
2023-01-11T15:02:46.688Z,7.85
2023-01-11T15:05:31.670Z,7.69
2023-01-11T15:08:13.234Z,7.59
2023-01-11T15:10:39.887Z,7.55
2023-01-11T15:13:13.043Z,7.49
2023-01-11T15:15:58.767Z,7.42
2023-01-11T15:18:27.234Z,7.44
2023-01-11T15:21:06.622Z,7.45
2023-01-11T15:23:46.221Z,7.43
2023-01-11T15:26:19.957Z,7.43
2023-01-11T15:28:55.415Z,7.39
2023-01-11T15:31:48.472Z,7.39
2023-01-11T15:34:22.612Z,7.33
2023-01-11T15:37:27.872Z,7.37
2023-01-11T15:40:11.393Z,7.40
2023-01-11T15:42:52.847Z,7.32
2023-01-11T15:45:28.164Z,7.33
2023-01-11T15:48:25.305Z,7.31
2023-01-11T15:51:07.597Z,7.26
2023-01-11T15:53:50.637Z,7.19
2023-01-11T15:56:55.168Z,7.22
2023-01-11T15:59:43.341Z,7.24
2023-01-11T16:02:12.878Z,7.18
2023-01-11T16:04:58.944Z,7.09
2023-01-11T16:07:33.513Z,7.05
2023-01-11T16:10:09.943Z,6.96
2023-01-11T16:13:15.325Z,6.83
2023-01-11T16:16:03.223Z,6.77
2023-01-11T16:18:37.612Z,6.86
2023-01-11T16:21:14.415Z,6.84
2023-01-11T16:23:41.654Z,6.84
2023-01-11T16:26:08.670Z,6.85
2023-01-11T16:28:35.486Z,6.89
2023-01-11T16:31:04.827Z,6.92
2023-01-11T16:33:33.554Z,7.00
2023-01-11T16:36:11.085Z,7.06
2023-01-11T16:38:48.651Z,7.08
2023-01-11T16:41:16.661Z,7.02
2023-01-11T16:43:52.823Z,6.97
2023-01-11T16:46:41.350Z,6.97
2023-01-11T16:49:11.450Z,7.00
2023-01-11T16:51:38.031Z,7.08
2023-01-11T16:54:04.935Z,7.07
2023-01-11T16:56:31.813Z,7.02
2023-01-11T16:59:06.343Z,7.00
2023-01-11T17:01:54.461Z,6.86
2023-01-11T17:04:31.838Z,6.66
2023-01-11T17:07:28.635Z,6.49
2023-01-11T17:10:28.792Z,6.44
2023-01-11T17:13:44.227Z,6.35
2023-01-11T17:16:15.029Z,6.30
2023-01-11T17:18:43.053Z,6.28
2023-01-11T17:21:29.940Z,6.24
2023-01-11T17:24:02.578Z,6.20
2023-01-11T17:26:33.509Z,6.26
2023-01-11T17:29:00.619Z,6.21
2023-01-11T17:31:32.296Z,6.21
2023-01-11T17:34:17.677Z,6.21
2023-01-11T17:36:45.783Z,6.16
2023-01-11T17:39:22.886Z,6.24
2023-01-11T17:42:22.514Z,6.23
2023-01-11T17:45:10.053Z,6.27
2023-01-11T17:47:39.643Z,6.37
2023-01-11T17:50:17.520Z,6.44
2023-01-11T17:52:54.540Z,6.47
2023-01-11T17:55:27.074Z,6.50
2023-01-11T17:58:26.272Z,6.51
2023-01-11T18:01:05.013Z,6.40
2023-01-11T18:03:41.100Z,6.37
2023-01-11T18:06:42.211Z,6.37
2023-01-11T18:09:23.183Z,6.24
2023-01-11T18:11:51.543Z,6.25
2023-01-11T18:14:25.322Z,6.19
2023-01-11T18:17:35.143Z,6.21
2023-01-11T18:20:23.041Z,6.19
2023-01-11T18:23:07.751Z,6.27
2023-01-11T18:25:35.171Z,6.31
2023-01-11T18:28:26.897Z,6.34
2023-01-11T18:30:57.686Z,6.34
2023-01-11T18:33:28.072Z,6.39
2023-01-11T18:36:00.390Z,6.28
2023-01-11T18:38:35.252Z,6.19
2023-01-11T18:41:26.416Z,6.18
2023-01-11T18:43:54.090Z,6.13
2023-01-11T18:46:20.899Z,6.05
2023-01-11T18:48:47.731Z,5.94
2023-01-11T18:51:41.581Z,6.01
2023-01-11T18:54:16.172Z,5.98
2023-01-11T18:56:42.757Z,5.87
2023-01-11T18:59:09.359Z,5.86
2023-01-11T19:01:52.640Z,5.86
2023-01-11T19:04:24.003Z,5.87
2023-01-11T19:06:52.363Z,5.91
2023-01-11T19:09:19.039Z,5.86
2023-01-11T19:11:45.637Z,5.82
2023-01-11T19:14:12.329Z,5.73
2023-01-11T19:16:38.893Z,5.81
2023-01-11T19:19:05.494Z,5.71
2023-01-11T19:21:32.245Z,5.71
2023-01-11T19:23:58.858Z,5.75
2023-01-11T19:26:27.687Z,5.69
2023-01-11T19:28:54.234Z,5.66
2023-01-11T19:31:20.869Z,5.64
2023-01-11T19:33:47.752Z,5.58
2023-01-11T19:36:14.396Z,5.61
2023-01-11T19:38:40.994Z,5.62
2023-01-11T19:41:10.157Z,5.73
2023-01-11T19:43:36.999Z,5.82
2023-01-11T19:46:04.102Z,5.89
2023-01-11T19:48:34.852Z,5.95
2023-01-11T19:51:02.831Z,5.91
2023-01-11T19:53:30.882Z,5.89
2023-01-11T19:56:15.417Z,5.88
2023-01-11T19:58:41.978Z,5.87
2023-01-11T20:01:10.958Z,5.91
2023-01-11T20:03:40.668Z,5.88
2023-01-11T20:06:08.327Z,6.01
2023-01-11T20:08:38.518Z,6.07
2023-01-11T20:11:10.784Z,6.10
2023-01-11T20:13:37.848Z,6.12
2023-01-11T20:16:06.228Z,6.16
2023-01-11T20:18:33.568Z,6.22
2023-01-11T20:21:00.478Z,6.28
2023-01-11T20:23:29.375Z,6.24
2023-01-11T20:26:04.482Z,6.15
2023-01-11T20:28:32.132Z,6.14
2023-01-11T20:31:01.937Z,6.19
2023-01-11T20:33:28.754Z,6.25
2023-01-11T20:35:55.348Z,6.32
2023-01-11T20:38:21.899Z,6.34
2023-01-11T20:40:48.499Z,6.32
2023-01-11T20:43:15.104Z,6.37
2023-01-11T20:45:41.699Z,6.43
2023-01-11T20:48:08.281Z,6.51
2023-01-11T20:50:37.246Z,6.53
2023-01-11T20:53:03.941Z,6.51
2023-01-11T20:55:30.621Z,6.49
2023-01-11T20:57:58.470Z,6.48
2023-01-11T21:00:25.342Z,6.59
2023-01-11T21:02:51.979Z,6.62
2023-01-11T21:05:18.690Z,6.71
2023-01-11T21:07:45.327Z,6.64
2023-01-11T21:10:11.884Z,6.61
2023-01-11T21:12:41.236Z,6.62
2023-01-11T21:15:10.678Z,6.71
2023-01-11T21:17:37.819Z,6.65
2023-01-11T21:20:05.243Z,6.69
2023-01-11T21:22:31.825Z,6.59
2023-01-11T21:24:58.439Z,6.63
2023-01-11T21:27:25.137Z,6.60
2023-01-11T21:29:51.808Z,6.56
2023-01-11T21:32:18.434Z,6.62
2023-01-11T21:34:45.083Z,6.57
2023-01-11T21:37:11.747Z,6.57
2023-01-11T21:39:38.329Z,6.53
2023-01-11T21:42:05.054Z,6.39
2023-01-11T21:44:33.921Z,6.41
2023-01-11T21:47:02.186Z,6.48
2023-01-11T21:49:28.811Z,6.40
2023-01-11T21:51:55.423Z,6.39
2023-01-11T21:54:21.994Z,6.50
2023-01-11T21:56:49.936Z,6.54
2023-01-11T21:59:18.107Z,6.47
2023-01-11T22:01:45.625Z,6.54
2023-01-11T22:04:14.424Z,6.59
2023-01-11T22:06:43.502Z,6.58
2023-01-11T22:09:11.940Z,6.53
2023-01-11T22:11:39.304Z,6.54
2023-01-11T22:14:06.700Z,6.59
2023-01-11T22:16:33.510Z,6.73
2023-01-11T22:19:01.250Z,6.70
2023-01-11T22:21:27.965Z,6.69
2023-01-11T22:23:56.800Z,6.74
2023-01-11T22:26:24.327Z,6.71
2023-01-11T22:29:15.298Z,6.75
2023-01-11T22:31:51.435Z,6.76
2023-01-11T22:34:18.964Z,6.77
2023-01-11T22:36:46.282Z,6.76
2023-01-11T22:39:15.010Z,6.69
2023-01-11T22:41:42.382Z,6.69
2023-01-11T22:44:09.484Z,6.68
2023-01-11T22:46:36.319Z,6.65
2023-01-11T22:49:03.567Z,6.64
2023-01-11T22:51:30.155Z,6.67
2023-01-11T22:53:56.838Z,6.66
2023-01-11T22:56:26.246Z,6.74
2023-01-11T22:58:53.897Z,6.71
2023-01-11T23:01:26.430Z,6.77
2023-01-11T23:03:55.033Z,6.86
2023-01-11T23:06:24.679Z,6.84
2023-01-11T23:08:51.858Z,6.85
2023-01-11T23:11:39.381Z,6.80
2023-01-11T23:14:12.794Z,6.80
2023-01-11T23:16:39.919Z,6.85
2023-01-11T23:19:07.735Z,6.78
2023-01-11T23:21:35.130Z,6.78
2023-01-11T23:24:02.273Z,6.91
2023-01-11T23:26:29.641Z,6.85
2023-01-11T23:28:56.685Z,6.82
2023-01-11T23:31:25.816Z,6.84
2023-01-11T23:33:54.585Z,6.92
2023-01-11T23:36:23.205Z,6.83
2023-01-11T23:38:50.872Z,6.82
2023-01-11T23:41:38.657Z,6.93
2023-01-11T23:44:09.556Z,6.95
2023-01-11T23:46:55.982Z,6.94
2023-01-11T23:49:24.681Z,6.92
2023-01-11T23:51:52.087Z,6.93
2023-01-11T23:54:18.927Z,6.98
2023-01-11T23:56:45.588Z,6.92
2023-01-11T23:59:12.168Z,7.02
